This is the latest recevied weather packets stored in our database for station/object KK7AZD-13. If no packets are shown the sender has not sent any weather packets the latest 1 day(s).
| Time | Temp. | Humidity | Pressure | Rain* | Wind** | Luminosity | Snow |
|---|---|---|---|---|---|---|---|
| 1778009364 | 19.44° C | 40% | 1013.7 hPa | 0 mm | 3.13 m/s, 274° | 511 W/m² | - |
| 1778008463 | 20° C | 39% | 1013.7 hPa | 0 mm | 3.58 m/s, 295° | 940 W/m² | - |
| 1778007562 | 20° C | 38% | 1013.6 hPa | 0 mm | 4.47 m/s, 311° | 954 W/m² | - |
| 1778006659 | 18.89° C | 41% | 1013.9 hPa | 0 mm | 1.79 m/s, 232° | 929 W/m² | - |
| 1778005755 | 18.33° C | 42% | 1013.8 hPa | 0 mm | 3.13 m/s, 277° | 927 W/m² | - |
| 1778004852 | 17.78° C | 40% | 1013.5 hPa | 0 mm | 3.58 m/s, 283° | 952 W/m² | - |
| 1778003947 | 17.78° C | 42% | 1013.7 hPa | 0 mm | 1.79 m/s, 295° | 975 W/m² | - |
| 1778003044 | 17.78° C | 42% | 1013.9 hPa | 0 mm | 2.24 m/s, 273° | 920 W/m² | - |
| 1778002139 | 16.67° C | 46% | 1013.9 hPa | 0 mm | 3.58 m/s, 295° | 834 W/m² | - |
| 1778001239 | 16.67° C | 50% | 1013.9 hPa | 0 mm | 1.34 m/s, 270° | 753 W/m² | - |
| 1778000334 | 17.22° C | 35% | 1013.9 hPa | 0 mm | 1.34 m/s, 26° | 689 W/m² | - |
| 1777999434 | 16.11° C | 50% | 1013.9 hPa | 0 mm | 1.34 m/s, 324° | 659 W/m² | - |
| 1777998530 | 16.67° C | 36% | 1013.8 hPa | 0 mm | 1.34 m/s, 51° | 666 W/m² | - |
| 1777997625 | 15.56° C | 40% | 1014 hPa | 0 mm | 0.45 m/s, 43° | 530 W/m² | - |
| 1777996723 | 15° C | 43% | 1013.8 hPa | 0 mm | 0 m/s | 426 W/m² | - |
| 1777995817 | 14.44° C | 43% | 1014 hPa | 0 mm | 1.34 m/s, 1° | 345 W/m² | - |
| 1777994914 | 13.89° C | 45% | 1013.9 hPa | 0 mm | 0.89 m/s, 23° | 291 W/m² | - |
| 1777994014 | 12.78° C | 49% | 1013.6 hPa | 0 mm | 0.45 m/s, 64° | 142 W/m² | - |
| 1777993114 | 12.22° C | 52% | 1013.6 hPa | 0 mm | 1.34 m/s, 16° | 119 W/m² | - |
| 1777992215 | 10.56° C | 57% | 1013.6 hPa | 0 mm | 0.89 m/s, 29° | 144 W/m² | - |
| 1777991311 | 9.44° C | 62% | 1013.7 hPa | 0 mm | 0.89 m/s, 44° | 112 W/m² | - |
| 1777990409 | 7.22° C | 69% | 1013.5 hPa | 0 mm | 0.45 m/s, 49° | 54 W/m² | - |
| 1777989505 | 5.56° C | 72% | 1013.1 hPa | 0 mm | 0 m/s | 42 W/m² | - |
| 1777988601 | 5° C | 75% | 1013.1 hPa | 0 mm | 0 m/s | 28 W/m² | - |
| 1777987696 | 2.22° C | 84% | 1013 hPa | 0 mm | 0.45 m/s, 23° | 19 W/m² | - |
* Rain latest hour (hover to see other rain measurements)
** Current wind speed in m/s (hover to see current wind gust speed)